WetterOnline ( https://www.wetteronline.at )

Wetter aktuell Frankfurt am Main

Aktuelles Wetter: Offenbach (119m)

6-stündlich | Neueste Meldungen
Ortszeit Temperatur Wetter
Sa, 04.07. 8:00 16.2° C wolkig
Sa, 04.07. 2:00 14.2° C wolkig
Fr, 03.07. 20:00 24.2° C bewölkt
Fr, 03.07. 14:00 21.9° C bewölkt
Fr, 03.07. 8:00 16.2° C wolkenlos
Fr, 03.07. 2:00 14.6° C bewölkt
Do, 02.07. 20:00 23.0° C wolkig
Do, 02.07. 14:00 26.0° C wolkig
Ortszeit Temperatur Wetter
Sa, 04.07. 11:30 22.2° C bedeckt
Sa, 04.07. 11:20 22.2° C bedeckt
Sa, 04.07. 11:10 22.6° C wolkig
Sa, 04.07. 11:00 22.3° C wolkig
Sa, 04.07. 10:50 22.3° C wolkig
Sa, 04.07. 10:40 22.2° C wolkig
Sa, 04.07. 10:30 21.4° C bedeckt
Sa, 04.07. 10:00 20.6° C bedeckt
Sa, 04.07. 9:30 20.2° C bewölkt
Sa, 04.07. 9:00 19.3° C wolkig
Sa, 04.07. 8:30 18.2° C wolkig
Ortszeit Relative Feuchte Sichtweite
Sa, 04.07. 8:00 69% 60 km
Sa, 04.07. 2:00 74% 65 km
Fr, 03.07. 20:00 38% >70 km
Fr, 03.07. 14:00 44% 55 km
Fr, 03.07. 8:00 75% 40 km
Fr, 03.07. 2:00 96% 40 km
Do, 02.07. 20:00 50% 65 km
Do, 02.07. 14:00 39% 60 km
Ortszeit Relative Feuchte Sichtweite
Sa, 04.07. 11:30 43% 45 km
Sa, 04.07. 11:20 43% -
Sa, 04.07. 11:10 42% -
Sa, 04.07. 11:00 43% 65 km
Sa, 04.07. 10:50 43% -
Sa, 04.07. 10:40 44% -
Sa, 04.07. 10:30 46% 40 km
Sa, 04.07. 10:00 54% 45 km
Sa, 04.07. 9:30 53% 55 km
Sa, 04.07. 9:00 57% 55 km
Sa, 04.07. 8:30 61% >70 km
Ortszeit Niederschlagsmenge Niederschlagsart
Sa, 04.07. 8:00 0.0 l/m2 in 12 Std. -
Sa, 04.07. 2:00 0.0 l/m2 in 6 Std. -
Fr, 03.07. 20:00 0.0 l/m2 in 12 Std. -
Fr, 03.07. 14:00 0.0 l/m2 in 6 Std. -
Fr, 03.07. 8:00 1 l/m2 in 12 Std. -
Fr, 03.07. 2:00 1 l/m2 in 6 Std. Regen
Do, 02.07. 20:00 0.1 l/m2 in 12 Std. Regen
Do, 02.07. 14:00 0.0 l/m2 in 6 Std. -
Ortszeit Niederschlagsmenge Niederschlagsart
Sa, 04.07. 11:30 0.0 l/m2 in 1 Std. -
Sa, 04.07. 11:20 keine Meldung -
Sa, 04.07. 11:10 keine Meldung -
Sa, 04.07. 11:00 0.0 l/m2 in 1 Std. -
Sa, 04.07. 10:50 keine Meldung -
Sa, 04.07. 10:40 keine Meldung -
Sa, 04.07. 10:30 0.0 l/m2 in 1 Std. -
Sa, 04.07. 10:00 0.0 l/m2 in 1 Std. -
Sa, 04.07. 9:30 0.0 l/m2 in 1 Std. -
Sa, 04.07. 9:00 0.0 l/m2 in 1 Std. -
Sa, 04.07. 8:30 0.0 l/m2 in 1 Std. -
Ortszeit Stärke Spitze Richtung
km/h Bft. km/h Grad Sektor
Sa, 04.07. 8:00 7 2 18 220° SW
Sa, 04.07. 2:00 4 1 25 210° SW
Fr, 03.07. 20:00 6 1 26 210° SW
Fr, 03.07. 14:00 13 3 30 270° W
Fr, 03.07. 8:00 0 0 14 - -
Fr, 03.07. 2:00 7 2 61 260° W
Do, 02.07. 20:00 15 3 44 280° W
Do, 02.07. 14:00 15 3 39 240° SW
Ortszeit Stärke Spitze Richtung
km/h Bft. km/h Grad Sektor
Sa, 04.07. 11:30 17 3 35 230° SW
Sa, 04.07. 11:20 17 3 - 230° SW
Sa, 04.07. 11:10 18 3 - 240° SW
Sa, 04.07. 11:00 18 3 43 240° SW
Sa, 04.07. 10:50 18 3 - 240° SW
Sa, 04.07. 10:40 13 3 - 230° SW
Sa, 04.07. 10:30 17 3 30 240° SW
Sa, 04.07. 10:00 9 2 24 230° SW
Sa, 04.07. 9:30 11 2 25 220° SW
Sa, 04.07. 9:00 9 2 22 230° SW
Sa, 04.07. 8:30 7 2 18 230° SW
Ortszeit Untergrenze Bedeckung Gattung
total tief tief mittel hoch
Sa, 04.07. 8:00 7200 m 7/8 0/8 - - -
Sa, 04.07. 2:00 8400 m 8/8 0/8 - - -
Fr, 03.07. 20:00 1800 m 7/8 7/8 - - -
Fr, 03.07. 14:00 1500 m 7/8 7/8 - - -
Fr, 03.07. 8:00 - 0/8 0/8 - - -
Fr, 03.07. 2:00 2700 m 7/8 6/8 - - -
Do, 02.07. 20:00 1800 m 8/8 2/8 - - -
Do, 02.07. 14:00 1800 m 5/8 5/8 - - -
Ortszeit Bedeckungsgrad in Achtel und Wolkenuntergrenze
Sa, 04.07. 11:30 8(4200m) 8(6600m)
Sa, 04.07. 11:20 8(4200m) 8(6600m)
Sa, 04.07. 11:10 1(1500m) 8(4500m) 8(6600m)
Sa, 04.07. 11:00 2(1470m) 8(4500m) 8(6000m)
Sa, 04.07. 10:50 2(1470m) 8(4500m) 8(6000m)
Sa, 04.07. 10:40 1(1380m) 8(4800m) 8(6000m)
Sa, 04.07. 10:30 8(5100m) 8(6300m) 8(6900m)
Sa, 04.07. 10:00 6(5400m) 8(6600m) 8(7500m)
Sa, 04.07. 9:30 2(6300m) 5(6900m) 8(7500m)
Sa, 04.07. 9:00 6(6000m) 6(7200m) 8(7800m)
Sa, 04.07. 8:30 3(6000m) 7(7800m) 7(8700m)
Ortszeit Luftdruck NN (hPa) Tendenz (hPa in 3 Std.)
Sa, 04.07. 8:00 1019 + 0,5
Sa, 04.07. 2:00 1019 + 0,6
Fr, 03.07. 20:00 1017 - 0,4
Fr, 03.07. 14:00 1018 - 0,1
Fr, 03.07. 8:00 1018 + 1,3
Fr, 03.07. 2:00 1016 + 0,9
Do, 02.07. 20:00 1012 + 1,3
Do, 02.07. 14:00 1010 - 0,9
Ortszeit Luftdruck NN (hPa) Tendenz (hPa in 3 Std.)
Sa, 04.07. 11:30 1018 - 0,8
Sa, 04.07. 11:20 1018 keine Meldung
Sa, 04.07. 11:10 1018 keine Meldung
Sa, 04.07. 11:00 1019 - 0,4
Sa, 04.07. 10:50 1019 keine Meldung
Sa, 04.07. 10:40 1019 keine Meldung
Sa, 04.07. 10:30 1019 - 0,2
Sa, 04.07. 10:00 1019 0,0
Sa, 04.07. 9:30 1019 + 0,5
Sa, 04.07. 9:00 1019 + 0,6
Sa, 04.07. 8:30 1019 + 0,5
Ortszeit Schneehöhe (cm)
Sa, 04.07. 8:00 -
Sa, 04.07. 2:00 -
Fr, 03.07. 20:00 -
Fr, 03.07. 14:00 -
Fr, 03.07. 8:00 -
Fr, 03.07. 2:00 -
Do, 02.07. 20:00 -
Do, 02.07. 14:00 -
Ortszeit Schneehöhe (cm)
Sa, 04.07. 11:30 -
Sa, 04.07. 11:20 -
Sa, 04.07. 11:10 -
Sa, 04.07. 11:00 -
Sa, 04.07. 10:50 -
Sa, 04.07. 10:40 -
Sa, 04.07. 10:30 -
Sa, 04.07. 10:00 -
Sa, 04.07. 9:30 -
Sa, 04.07. 9:00 -
Sa, 04.07. 8:30 -
Link zu dieser Seite / Seite empfehlen

Das Wetter in ...